Airfield :
LOGIN :

Register | Disclaimer

   EN    FR    IT 

 










Legend :    VFR   Marginal VFR   IFR   Intensive IFR   Very Intensive IFR
Visi :
Ceiling :
>= 8 km
>= 3000ft
5 to 8 km
1000 to 3000 ft
1500m to 5 km
500 to 1000 ft
800 to 1500m
200 to 500 ft
< 800m
< 200 ft
Symbols :   Thunderstorms  Fog  Heavy snow  Heavy precipitations  Wind > 20 kt
SIGMETs :     Misc.  Thunderstorms  Icing  Turbulence  Mountain Waves  Volcanic Ashes







- Airport Elevation : 74 ft
- IATA code : MRS
- Download approach charts


LFML - Marseille / Marignane

CURRENT METAR :
  • 281230Z AUTO 26010KT CAVOK 32/08 Q1014 NOSIG

EXPIRED METARs :
  • 281200Z AUTO 26010KT CAVOK 32/09 Q1014 NOSIG
  • 281130Z AUTO 27010KT CAVOK 31/10 Q1014 NOSIG
  • 281100Z AUTO 26012KT CAVOK 31/11 Q1014 NOSIG
  • 281030Z AUTO 26011KT CAVOK 30/12 Q1014 NOSIG
  • 281000Z AUTO 28010KT CAVOK 30/12 Q1014 NOSIG

TAF TAF LFML
Valid from the 28 at 09:00 until the 29 at 15:00 UTC


280800Z 2809/2915 28010KT CAVOK
TEMPO 2813/2817 25015KT
BECMG 2819/2821 VRB03KT
BECMG 2908/2910 18013KT TX32/2813Z TN22/2904Z
ATIS : +33 4 42 31 15 15
No reported NOTAMs for that airfield.



MET'MAP, your aeronautical weather chart ! - Copyright ORBIFLY December 2007 - Disclaimer

ORBIFLY MET'MAP TEAM :

Programming & Development : Alexandra Zaïnal
Concept & Development : Baudouin d'Aumeries
Co-Development & Prog : Marc-Olivier Méhu
Technical & hardware support : Manuel Goepfert

Contact : metmap@orbifly.com




SOURCES & CREDITS :

   NOAA